AirNav   Air Wisconsin pilot careers
 
 823 users online  

8OR1 Lebanon Hospital Heliport
Lebanon, Oregon, USA

GOING TO LEBANON?


FAA INFORMATION EFFECTIVE 08 NOVEMBER 2018

Location

FAA Identifier: 8OR1
Lat/Long: 44-33-05.3500N / 122-54-27.7900W
44-33.089167N / 122-54.463167W
44.5514861 / -122.9077194
(estimated)
Elevation: 340 ft. / 104 m (estimated)
Variation: 19E (1985)
From city: 1 mile SW of LEBANON, OR
Time zone: UTC -8 (UTC -7 during Daylight Saving Time)
Zip code: 97355

Heliport Operations

Heliport use: Private use, MEDICAL USE.
Control tower: no
ARTCC: SEATTLE CENTER
FSS: MC MINNVILLE FLIGHT SERVICE STATION
Attendance: CONTINUOUS
Wind indicator: yes
Segmented circle: no

Heliport Communications

WX AWOS-3PT at CVO (17 nm W): 135.775 (541-754-0081)

Nearby radio navigation aids

VOR radial/distance  VOR name  Freq  Var
CVOr061/16.8CORVALLIS VOR/DME115.4018E
EUGr013/29.2EUGENE VORTAC112.9015E

 
NDB name  Hdg/Dist  Freq  Var  ID
LEWISBURG089/16.022515ELWG .-.. .-- --.

Heliport Services

Runway Information

Helipad H1

Dimensions: 60 x 60 ft. / 18 x 18 m
Surface: asphalt
Latitude: 44-33.089167N
Longitude: 122-54.463167W
Elevation: 340.0 ft.
Traffic pattern: leftleft

Heliport Ownership and Management from official FAA records

Ownership: Privately-owned
Owner: LEBANON COMMUNITY HOSPITAL
525 N SANTIAM HIGHWAY
LEBANON, OR 97355
Phone 503-258-2101
Manager: ARLEN EMMERT
PO BOX 739
LEBANON, OR 97355
Phone 503-258-2101

Instrument Procedures

There are no published instrument procedures at 8OR1.

Some nearby airports with instrument procedures:

S12 - Albany Municipal Airport (8 nm NW)
KCVO - Corvallis Municipal Airport (17 nm W)
KSLE - McNary Field Airport (22 nm N)
KEUG - Mahlon Sweet Field Airport (29 nm SW)
KMMV - Mc Minnville Municipal Airport (40 nm N)
 
Loc | Ops | Rwys | IFR | FBO | Links
Com | Nav | Svcs | Stats | Notes


 
Area around 8OR1 (Lebanon Hospital Heliport)
 
Road maps at: MapQuest Bing Google
 
Aerial photo
No photo
 
Sectional chart

 
Airport distance calculator
Flying to Lebanon Hospital Heliport? Find the distance to fly.

From to 8OR1

Sunrise and sunset
Times for 20-Nov-2018
 Local
(UTC-8)
 Zulu
(UTC)
Morning civil twilight06:4414:44
Sunrise07:1615:16
Sunset16:3900:39
Evening civil twilight17:1101:11

Current date and time
Zulu (UTC)  21-Nov-2018 03:01:43
Local (UTC-8)  20-Nov-2018 19:01:43
 
METAR
KCVO 
16nm W 
210256Z AUTO 00000KT 10SM CLR 02/01 A2991 RMK AO2 SLP131 T00170006 55006 FZRANO
KSLE 
21nm N 
202356Z 00000KT 10SM CLR 11/01 A2989
KEUG 
28nm SW 
210254Z 20004KT 10SM BKN250 02/M01 A2990 RMK AO2 SLP130 T00221006 55004
TAF
KSLE 
21nm N 
201727Z 2018/2118 VRB03KT P6SM SCT200 FM210500 00000KT P6SM OVC100 FM211300 VRB03KT P6SM -RA SCT025 OVC050
NOTAMs
Click for the latest NOTAMs
NOTAMs are issued by the DoD/FAA and will open in a separate window not controlled by AirNav.

 

 
 

Would you like to see your business listed on this page?

 If your business provides an interesting product or service to pilots, flight crews, aircraft, or users of the Lebanon Hospital Heliport, you should consider listing it here.  To start the listing process, click on the button below
 
Add a business
 

Other Pages about Lebanon Hospital Heliport

Update a link
 
Copyright © AirNav, LLC. All rights reserved. Privacy Policy  Contact